Time;durP1;ratioP1;P1;durP2;ratioP2;P2;SDS_P1;SDS_P2;PMS_P1;PMS_P2;Temp;Humidity;BMP_temperature;BMP_pressure;BME280_temperature;BME280_humidity;BME280_pressure;Samples;Min_cycle;Max_cycle;Signal;HPM_P1;HPM_P2
2020/12/28 00:00:43;;;;;;;1.40;1.30;;;4.40;99.90;;;;;;5037202;28;20483;-83
2020/12/28 00:03:08;;;;;;;1.20;1.10;;;4.80;99.90;;;;;;5054992;28;20186;-83
2020/12/28 00:05:34;;;;;;;1.20;1.17;;;4.80;99.90;;;;;;5036999;28;20508;-83
2020/12/28 00:08:00;;;;;;;1.40;1.27;;;4.50;99.90;;;;;;5054770;28;20258;-85
2020/12/28 00:10:26;;;;;;;1.60;1.50;;;4.50;99.90;;;;;;5036817;28;20218;-82
2020/12/28 00:12:52;;;;;;;1.27;1.17;;;4.40;99.90;;;;;;5036816;28;20697;-83
2020/12/28 00:15:25;;;;;;;1.47;1.37;;;4.80;99.90;;;;;;5036793;28;20172;-83
2020/12/28 00:17:53;;;;;;;1.50;1.40;;;4.70;99.90;;;;;;5036663;28;20426;-83
2020/12/28 00:20:22;;;;;;;1.33;1.23;;;4.70;99.90;;;;;;5054045;28;20533;-83
2020/12/28 00:22:48;;;;;;;1.53;1.43;;;4.70;99.90;;;;;;5036731;28;21003;-83
2020/12/28 00:25:15;;;;;;;1.53;1.30;;;4.70;99.90;;;;;;5035516;28;20680;-83
2020/12/28 00:27:41;;;;;;;2.20;1.20;;;4.70;99.90;;;;;;5036626;28;20790;-83
2020/12/28 00:30:07;;;;;;;1.67;1.50;;;4.80;99.90;;;;;;5036440;28;20418;-84
2020/12/28 00:32:34;;;;;;;1.63;1.53;;;4.80;99.90;;;;;;5036405;28;20429;-83
2020/12/28 00:35:00;;;;;;;1.20;1.20;;;4.60;99.90;;;;;;5053180;28;20179;-83
2020/12/28 00:37:25;;;;;;;1.23;1.20;;;4.70;99.90;;;;;;5036426;28;20423;-81
2020/12/28 00:39:51;;;;;;;1.00;1.00;;;4.70;99.90;;;;;;5036230;28;20563;-83
2020/12/28 00:42:17;;;;;;;1.47;1.37;;;4.80;99.90;;;;;;5036394;28;20198;-82
2020/12/28 00:44:42;;;;;;;1.33;1.23;;;4.50;99.90;;;;;;5036371;28;20180;-83
2020/12/28 00:47:08;;;;;;;1.33;1.23;;;4.80;99.90;;;;;;5036050;28;20277;-83
2020/12/28 00:49:34;;;;;;;1.73;1.50;;;4.80;99.90;;;;;;5036200;28;20184;-82
2020/12/28 00:52:00;;;;;;;3.10;1.13;;;4.50;99.90;;;;;;5036349;28;20449;-83
2020/12/28 00:54:25;;;;;;;1.50;1.03;;;4.80;99.90;;;;;;5036141;28;20184;-83
2020/12/28 00:56:51;;;;;;;0.90;0.90;;;4.80;99.90;;;;;;5036557;28;20179;-83
2020/12/28 00:59:17;;;;;;;2.50;1.50;;;4.80;99.90;;;;;;5037174;28;20222;-82
2020/12/28 01:01:42;;;;;;;1.57;1.47;;;4.80;99.90;;;;;;5037342;28;20180;-82
2020/12/28 01:04:08;;;;;;;1.53;1.47;;;4.80;99.90;;;;;;5037804;28;20435;-83
2020/12/28 01:06:34;;;;;;;1.17;1.17;;;4.80;99.90;;;;;;5036310;28;20241;-83
2020/12/28 01:08:59;;;;;;;1.37;1.27;;;4.50;99.90;;;;;;5036053;28;20184;-82
2020/12/28 01:11:25;;;;;;;2.00;1.80;;;4.70;99.90;;;;;;5036222;28;20222;-83
2020/12/28 01:13:50;;;;;;;2.40;1.97;;;4.40;99.90;;;;;;5054025;28;20171;-84
2020/12/28 01:16:16;;;;;;;1.87;1.13;;;4.70;99.90;;;;;;5035726;28;20179;-83
2020/12/28 01:18:42;;;;;;;1.47;1.37;;;4.70;99.90;;;;;;5035886;28;20215;-83
2020/12/28 01:21:07;;;;;;;1.83;1.73;;;4.70;99.90;;;;;;5035793;28;20267;-83
2020/12/28 01:23:33;;;;;;;2.40;2.20;;;4.50;99.90;;;;;;5035628;28;20618;-82
2020/12/28 01:25:58;;;;;;;2.30;1.63;;;4.30;99.90;;;;;;5035752;28;20188;-84
2020/12/28 01:28:24;;;;;;;2.03;1.93;;;4.60;99.90;;;;;;5053552;28;20191;-83
2020/12/28 01:30:50;;;;;;;2.00;1.90;;;4.60;99.90;;;;;;5052155;28;20669;-83
2020/12/28 01:33:16;;;;;;;1.50;1.40;;;4.60;99.90;;;;;;5035577;28;20441;-83
2020/12/28 01:35:41;;;;;;;2.13;1.97;;;4.30;99.90;;;;;;5035686;28;20194;-83
2020/12/28 01:38:07;;;;;;;4.73;2.40;;;4.60;99.90;;;;;;5039106;28;20211;-84
2020/12/28 01:40:33;;;;;;;2.30;2.00;;;4.60;99.90;;;;;;5039863;28;20191;-82
2020/12/28 01:42:59;;;;;;;2.17;1.80;;;4.60;99.90;;;;;;5039819;28;20229;-83
2020/12/28 01:45:25;;;;;;;2.13;2.03;;;4.50;99.90;;;;;;5039955;28;20429;-82
2020/12/28 01:47:50;;;;;;;2.63;1.80;;;4.60;99.90;;;;;;5039617;28;20317;-83
2020/12/28 01:50:17;;;;;;;2.10;2.00;;;4.50;99.90;;;;;;5039507;28;20937;-83
2020/12/28 01:52:43;;;;;;;1.83;1.73;;;4.50;99.90;;;;;;5039470;28;20186;-82
2020/12/28 01:55:09;;;;;;;2.23;2.07;;;4.50;99.90;;;;;;5057281;28;20762;-83
2020/12/28 01:57:35;;;;;;;2.00;1.90;;;4.30;99.90;;;;;;5039204;28;20180;-82
2020/12/28 02:00:00;;;;;;;2.20;2.10;;;4.50;99.90;;;;;;5039161;28;20484;-84
2020/12/28 02:02:28;;;;;;;1.70;1.60;;;4.60;99.90;;;;;;5039316;28;20984;-83
2020/12/28 02:04:54;;;;;;;3.90;2.10;;;4.20;99.90;;;;;;5039290;28;20172;-82
2020/12/28 02:07:22;;;;;;;2.10;2.00;;;4.60;99.90;;;;;;5057031;28;20926;-83
2020/12/28 02:09:49;;;;;;;1.93;1.73;;;4.30;99.90;;;;;;5039276;28;20410;-83
2020/12/28 02:12:14;;;;;;;2.97;2.63;;;4.50;99.90;;;;;;5038971;28;20449;-83
2020/12/28 02:14:40;;;;;;;1.60;1.50;;;4.20;99.90;;;;;;5039237;28;20449;-83
2020/12/28 02:17:06;;;;;;;2.23;2.03;;;4.40;99.90;;;;;;5039120;28;20631;-83
2020/12/28 02:19:31;;;;;;;2.83;1.73;;;4.50;99.90;;;;;;5039080;28;20215;-81
2020/12/28 02:21:58;;;;;;;2.63;2.43;;;4.50;99.90;;;;;;5039025;28;20635;-83
2020/12/28 02:24:23;;;;;;;2.60;2.40;;;4.40;99.90;;;;;;5056828;28;20223;-84
2020/12/28 02:26:49;;;;;;;2.37;2.17;;;4.10;99.90;;;;;;5038807;28;20504;-83
2020/12/28 02:29:15;;;;;;;2.63;2.43;;;4.00;99.90;;;;;;5038875;28;20176;-82
2020/12/28 02:31:40;;;;;;;2.10;2.00;;;4.40;99.90;;;;;;5038921;28;20259;-82
2020/12/28 02:34:06;;;;;;;2.90;2.67;;;4.30;99.90;;;;;;5038685;28;20314;-83
2020/12/28 02:36:32;;;;;;;2.93;2.63;;;4.40;99.90;;;;;;5038671;28;20181;-83
2020/12/28 02:38:58;;;;;;;2.40;2.27;;;4.30;99.90;;;;;;5038641;28;20200;-83
2020/12/28 02:41:25;;;;;;;3.00;2.70;;;4.30;99.90;;;;;;5038755;28;20267;-83
2020/12/28 02:43:51;;;;;;;2.27;2.13;;;4.40;99.90;;;;;;5038389;28;20947;-82
2020/12/28 02:46:18;;;;;;;2.80;2.60;;;4.30;99.90;;;;;;5038587;28;20421;-83
2020/12/28 02:48:44;;;;;;;3.57;2.87;;;4.30;99.90;;;;;;5037522;28;20430;-83
2020/12/28 02:51:13;;;;;;;3.17;2.97;;;3.90;99.90;;;;;;5038370;28;20476;-83
2020/12/28 02:53:39;;;;;;;3.03;2.83;;;3.90;99.90;;;;;;5038397;28;20422;-82
2020/12/28 02:56:04;;;;;;;3.10;2.90;;;3.90;99.90;;;;;;5038355;28;20422;-82
2020/12/28 02:58:30;;;;;;;2.80;2.60;;;4.30;99.90;;;;;;5056087;28;20477;-82
2020/12/28 03:00:55;;;;;;;3.90;3.60;;;3.80;99.90;;;;;;5056044;28;20628;-82
2020/12/28 03:03:21;;;;;;;4.03;3.73;;;4.20;99.90;;;;;;5055928;28;20172;-83
2020/12/28 03:05:47;;;;;;;5.23;3.57;;;4.20;99.90;;;;;;5038261;28;20206;-83
2020/12/28 03:08:12;;;;;;;3.57;3.27;;;4.20;99.90;;;;;;5038094;28;20180;-83
2020/12/28 03:10:38;;;;;;;3.90;3.60;;;4.20;99.90;;;;;;5055801;28;20175;-82
2020/12/28 03:13:03;;;;;;;2.77;2.57;;;3.80;99.90;;;;;;5038151;28;20180;-83
2020/12/28 03:15:29;;;;;;;3.07;2.87;;;4.20;99.90;;;;;;5038141;28;20176;-82
2020/12/28 03:17:54;;;;;;;2.80;2.60;;;4.10;99.90;;;;;;5037817;28;20279;-82
2020/12/28 03:20:20;;;;;;;3.67;3.37;;;4.10;99.90;;;;;;5038203;28;20191;-82
2020/12/28 03:22:46;;;;;;;4.07;3.67;;;3.70;99.90;;;;;;5038116;28;20645;-82
2020/12/28 03:25:11;;;;;;;4.07;3.77;;;4.10;99.90;;;;;;5037728;28;20698;-83
2020/12/28 03:27:37;;;;;;;2.90;2.70;;;3.70;99.90;;;;;;5037967;28;20180;-83
2020/12/28 03:30:03;;;;;;;4.20;3.80;;;4.00;99.90;;;;;;5039552;28;20176;-83
2020/12/28 03:32:29;;;;;;;3.47;3.17;;;4.00;99.90;;;;;;5056654;28;20472;-83
2020/12/28 03:34:54;;;;;;;2.90;2.70;;;4.10;99.90;;;;;;5038198;28;20418;-82
2020/12/28 03:37:20;;;;;;;2.97;2.77;;;4.10;99.90;;;;;;5038067;28;20207;-83
2020/12/28 03:39:45;;;;;;;3.70;3.40;;;4.00;99.90;;;;;;5037508;28;20265;-83
2020/12/28 03:42:11;;;;;;;4.97;3.23;;;4.00;99.90;;;;;;5037514;28;20176;-82
2020/12/28 03:44:36;;;;;;;3.10;2.90;;;4.00;99.90;;;;;;5037776;28;20172;-83
2020/12/28 03:47:02;;;;;;;2.90;2.60;;;4.00;99.90;;;;;;5037419;28;20206;-82
2020/12/28 03:49:28;;;;;;;1.90;1.80;;;4.00;99.90;;;;;;5055517;28;20172;-82
2020/12/28 03:51:53;;;;;;;3.00;2.80;;;3.70;99.90;;;;;;5037862;28;20202;-82
2020/12/28 03:54:19;;;;;;;2.20;2.10;;;4.00;99.90;;;;;;5037347;28;20180;-83
2020/12/28 03:56:45;;;;;;;2.20;2.10;;;3.90;99.90;;;;;;5037373;28;20543;-83
2020/12/28 03:59:10;;;;;;;2.27;2.07;;;3.60;99.90;;;;;;5036978;28;20698;-83
2020/12/28 04:01:36;;;;;;;2.13;2.00;;;4.00;99.90;;;;;;5037216;28;20179;-84
2020/12/28 04:04:02;;;;;;;2.10;2.00;;;4.00;99.90;;;;;;5055035;28;20231;-82
2020/12/28 04:06:27;;;;;;;1.93;1.83;;;4.00;99.90;;;;;;5037034;28;20199;-82
2020/12/28 04:08:53;;;;;;;2.10;1.90;;;3.80;99.90;;;;;;5037006;28;20230;-82
2020/12/28 04:11:18;;;;;;;1.20;1.20;;;3.60;99.90;;;;;;5036746;28;20184;-83
2020/12/28 04:13:44;;;;;;;1.60;1.50;;;4.00;99.90;;;;;;5036946;28;20195;-84
2020/12/28 04:16:09;;;;;;;1.83;1.73;;;4.00;99.90;;;;;;5036881;28;20266;-82
2020/12/28 04:18:35;;;;;;;1.60;1.47;;;3.70;99.90;;;;;;5036803;28;20207;-83
2020/12/28 04:21:00;;;;;;;1.70;1.60;;;3.60;99.90;;;;;;5036691;28;20184;-83
2020/12/28 04:23:26;;;;;;;1.47;1.37;;;3.90;99.90;;;;;;5036373;28;20180;-83
2020/12/28 04:25:52;;;;;;;1.40;1.30;;;3.90;99.90;;;;;;5036708;28;20198;-81
2020/12/28 04:28:17;;;;;;;3.13;2.67;;;3.90;99.90;;;;;;5054464;28;20168;-83
2020/12/28 04:30:43;;;;;;;1.93;1.83;;;3.90;99.90;;;;;;5054348;28;20245;-82
2020/12/28 04:33:08;;;;;;;2.07;1.87;;;3.90;99.90;;;;;;5036439;28;20176;-83
2020/12/28 04:35:35;;;;;;;1.80;1.67;;;3.90;99.90;;;;;;5036754;28;20183;-82
2020/12/28 04:38:01;;;;;;;2.60;2.07;;;3.90;99.90;;;;;;5036307;28;20172;-82
2020/12/28 04:40:26;;;;;;;2.80;2.43;;;3.90;99.90;;;;;;5036389;28;20421;-83
2020/12/28 04:42:53;;;;;;;1.37;1.27;;;3.60;99.90;;;;;;5036561;28;20180;-83
2020/12/28 04:45:19;;;;;;;0.63;0.63;;;3.70;99.90;;;;;;5036261;28;20525;-83
2020/12/28 04:47:44;;;;;;;1.27;1.17;;;3.90;99.90;;;;;;5054122;28;20437;-83
2020/12/28 04:50:10;;;;;;;1.73;1.60;;;3.90;99.90;;;;;;5036748;28;20414;-83
2020/12/28 04:52:36;;;;;;;1.53;1.43;;;3.60;99.90;;;;;;5036383;28;20206;-84
2020/12/28 04:55:03;;;;;;;1.43;1.33;;;3.90;99.90;;;;;;5036110;28;20262;-83
2020/12/28 04:57:28;;;;;;;1.00;1.00;;;3.50;99.90;;;;;;5036262;28;20427;-83
2020/12/28 04:59:55;;;;;;;2.27;2.07;;;3.90;99.90;;;;;;5036096;28;20484;-83
2020/12/28 05:02:22;;;;;;;1.07;0.97;;;3.90;99.90;;;;;;5035943;28;20238;-83
2020/12/28 05:04:48;;;;;;;0.57;0.47;;;3.90;99.90;;;;;;5036111;28;20450;-82
2020/12/28 05:07:13;;;;;;;0.63;0.63;;;3.90;99.90;;;;;;5036072;28;20429;-83
2020/12/28 05:09:39;;;;;;;0.80;0.80;;;3.90;99.90;;;;;;5035995;28;20183;-83
2020/12/28 05:12:06;;;;;;;0.50;0.40;;;3.70;99.90;;;;;;5035541;28;20221;-83
2020/12/28 05:14:35;;;;;;;0.70;0.60;;;3.70;99.90;;;;;;5036144;28;20179;-83
2020/12/28 05:17:06;;;;;;;1.40;0.60;;;4.00;99.90;;;;;;5036034;28;20460;-83
2020/12/28 05:19:34;;;;;;;0.53;0.53;;;4.00;99.90;;;;;;5035997;28;20470;-84
2020/12/28 05:22:00;;;;;;;0.57;0.57;;;4.00;99.90;;;;;;5035898;28;20407;-83
2020/12/28 05:24:25;;;;;;;0.50;0.50;;;3.70;99.90;;;;;;5034939;28;20481;-84
2020/12/28 05:26:51;;;;;;;0.40;0.40;;;4.00;99.90;;;;;;5035855;28;20168;-83
2020/12/28 05:29:20;;;;;;;1.10;0.60;;;4.00;99.90;;;;;;5035772;28;20635;-83
2020/12/28 05:31:47;;;;;;;2.00;1.60;;;4.00;99.90;;;;;;5035794;28;20457;-83
2020/12/28 05:34:16;;;;;;;1.50;1.40;;;3.60;99.90;;;;;;5035707;28;20433;-82
2020/12/28 05:36:45;;;;;;;0.90;0.90;;;4.10;99.90;;;;;;5035989;28;20415;-83
2020/12/28 05:39:15;;;;;;;0.50;0.40;;;3.80;99.90;;;;;;5035722;28;20829;-83
2020/12/28 05:41:51;;;;;;;0.40;0.30;;;3.80;99.90;;;;;;5035702;28;20429;-84
2020/12/28 05:44:16;;;;;;;0.57;0.57;;;4.10;99.90;;;;;;5035634;28;20994;-84
2020/12/28 05:46:42;;;;;;;0.70;0.40;;;4.00;99.90;;;;;;5053342;28;20897;-84
2020/12/28 05:49:07;;;;;;;0.50;0.50;;;4.20;99.90;;;;;;5035663;28;20223;-83
2020/12/28 05:51:35;;;;;;;0.90;0.60;;;4.20;99.90;;;;;;5035607;28;20232;-82
2020/12/28 05:54:07;;;;;;;0.53;0.50;;;4.20;99.90;;;;;;5053237;28;20179;-84
2020/12/28 05:56:34;;;;;;;0.40;0.30;;;4.20;99.90;;;;;;5035759;28;20414;-83
2020/12/28 05:59:02;;;;;;;0.30;0.30;;;4.20;99.90;;;;;;5036508;28;20462;-83
2020/12/28 06:01:30;;;;;;;0.40;0.40;;;4.20;99.90;;;;;;5037075;28;20418;-84
2020/12/28 06:04:00;;;;;;;1.63;0.60;;;3.80;99.90;;;;;;5035855;28;20460;-84
2020/12/28 06:06:27;;;;;;;0.80;0.43;;;3.80;99.90;;;;;;5035786;28;20411;-83
2020/12/28 06:08:53;;;;;;;0.73;0.53;;;3.90;99.90;;;;;;5035595;28;20426;-82
2020/12/28 06:11:20;;;;;;;0.50;0.50;;;4.20;99.90;;;;;;5035464;28;20557;-83
2020/12/28 06:13:45;;;;;;;0.70;0.70;;;4.20;99.90;;;;;;5035203;28;20180;-84
2020/12/28 06:16:22;;;;;;;0.57;0.57;;;4.20;99.90;;;;;;5035270;28;20747;-83
2020/12/28 06:18:54;;;;;;;0.30;0.30;;;4.20;99.90;;;;;;5035347;28;20261;-83
2020/12/28 06:21:20;;;;;;;0.70;0.57;;;4.20;99.90;;;;;;5035348;28;20427;-84
2020/12/28 06:23:50;;;;;;;0.70;0.40;;;4.20;99.90;;;;;;5039107;28;20913;-83
2020/12/28 06:26:22;;;;;;;0.80;0.50;;;4.20;99.90;;;;;;5038895;28;20518;-83
2020/12/28 06:28:47;;;;;;;0.90;0.90;;;4.10;99.90;;;;;;5057463;28;20414;-83
2020/12/28 06:31:13;;;;;;;0.63;0.63;;;4.10;99.90;;;;;;5038996;28;20422;-84
2020/12/28 06:33:49;;;;;;;1.27;0.67;;;3.80;99.90;;;;;;5038795;28;20272;-83
2020/12/28 06:36:18;;;;;;;0.70;0.70;;;3.80;99.90;;;;;;5038600;28;20586;-83
2020/12/28 06:38:58;;;;;;;0.70;0.70;;;4.10;99.90;;;;;;5038757;28;20818;-82
2020/12/28 06:41:28;;;;;;;0.80;0.80;;;4.20;99.90;;;;;;5031380;28;20462;-82
2020/12/28 06:44:02;;;;;;;1.07;0.93;;;4.10;99.90;;;;;;5055364;28;20431;-83
2020/12/28 06:46:29;;;;;;;1.40;1.30;;;4.10;99.90;;;;;;5037545;28;20414;-83
2020/12/28 06:48:56;;;;;;;4.63;2.33;;;4.10;99.90;;;;;;5055627;28;20477;-79
2020/12/28 06:51:23;;;;;;;1.97;1.60;;;4.00;99.90;;;;;;5035626;28;20505;-83
2020/12/28 06:53:55;;;;;;;2.00;1.47;;;4.10;99.90;;;;;;5037106;28;20732;-83
2020/12/28 06:56:25;;;;;;;0.87;0.87;;;3.80;99.90;;;;;;5054014;28;20428;-83
2020/12/28 06:59:01;;;;;;;1.13;1.07;;;3.80;99.90;;;;;;5053530;28;20493;-83
2020/12/28 07:01:27;;;;;;;1.83;1.70;;;4.00;99.90;;;;;;5037163;28;20472;-83
2020/12/28 07:03:54;;;;;;;0.70;0.70;;;3.70;99.90;;;;;;5036742;28;20427;-84
2020/12/28 07:06:20;;;;;;;0.77;0.77;;;3.70;99.90;;;;;;5037224;28;20865;-84
2020/12/28 07:08:46;;;;;;;0.90;0.70;;;3.70;99.90;;;;;;5037102;28;20415;-83
2020/12/28 07:11:18;;;;;;;0.57;0.53;;;3.70;99.90;;;;;;5036351;28;20422;-83
2020/12/28 07:13:47;;;;;;;0.80;0.60;;;3.90;99.90;;;;;;5037443;28;20505;-83
2020/12/28 07:16:14;;;;;;;0.60;0.50;;;3.90;99.90;;;;;;5036782;28;20418;-83
2020/12/28 07:18:40;;;;;;;0.53;0.53;;;3.40;99.90;;;;;;5036554;28;20464;-84
2020/12/28 07:21:06;;;;;;;0.60;0.60;;;3.80;99.90;;;;;;5036560;28;20422;-84
2020/12/28 07:23:33;;;;;;;0.70;0.50;;;3.60;99.90;;;;;;5036642;28;20419;-83
2020/12/28 07:26:04;;;;;;;0.80;0.77;;;3.40;99.90;;;;;;5036546;28;20461;-83
2020/12/28 07:28:31;;;;;;;0.57;0.50;;;3.70;99.90;;;;;;5036668;28;20423;-84
2020/12/28 07:30:58;;;;;;;3.13;0.90;;;3.30;99.90;;;;;;5036666;28;20423;-84
2020/12/28 07:33:24;;;;;;;1.50;1.17;;;3.30;99.90;;;;;;5036283;28;20434;-84
2020/12/28 07:36:04;;;;;;;4.10;1.27;;;3.70;99.90;;;;;;5036134;28;20504;-83
2020/12/28 07:38:30;;;;;;;1.80;1.40;;;3.80;99.90;;;;;;5036491;28;20555;-83
2020/12/28 07:40:56;;;;;;;2.53;1.10;;;3.70;99.90;;;;;;5036934;28;20426;-83
2020/12/28 07:43:22;;;;;;;0.60;0.60;;;3.40;99.90;;;;;;5036521;28;20759;-84
2020/12/28 07:45:48;;;;;;;4.00;0.90;;;3.20;99.90;;;;;;5054272;28;20464;-83
2020/12/28 07:48:18;;;;;;;0.60;0.60;;;3.10;99.90;;;;;;5036526;28;20180;-83
2020/12/28 07:50:46;;;;;;;0.70;0.70;;;3.30;99.90;;;;;;5037063;28;20286;-83
2020/12/28 07:53:16;;;;;;;0.83;0.60;;;3.60;99.90;;;;;;5035912;28;20426;-83
2020/12/28 07:56:03;;;;;;;1.10;1.10;;;3.60;99.90;;;;;;5054063;28;20414;-84
2020/12/28 07:58:38;;;;;;;0.80;0.70;;;3.30;99.90;;;;;;5035749;28;20464;-83
2020/12/28 08:01:17;;;;;;;1.17;0.87;;;3.50;99.90;;;;;;5036463;28;20436;-83
2020/12/28 08:03:52;;;;;;;1.20;1.07;;;3.50;99.90;;;;;;5037278;28;20414;-83
2020/12/28 08:06:19;;;;;;;1.97;1.57;;;3.20;99.90;;;;;;5036880;28;20459;-82
2020/12/28 08:08:45;;;;;;;3.13;1.00;;;3.60;99.90;;;;;;5036826;28;20940;-83
2020/12/28 08:11:11;;;;;;;1.00;1.00;;;3.20;99.90;;;;;;5037100;28;20423;-82
2020/12/28 08:13:40;;;;;;;1.30;1.20;;;3.20;99.90;;;;;;5036777;28;20649;-82
2020/12/28 08:16:12;;;;;;;0.97;0.97;;;3.50;99.90;;;;;;5036714;28;20422;-83
2020/12/28 08:18:49;;;;;;;1.40;1.30;;;3.60;99.90;;;;;;5036659;28;20492;-83
2020/12/28 08:21:16;;;;;;;1.40;1.30;;;3.30;99.90;;;;;;5036420;28;20521;-83
2020/12/28 08:23:51;;;;;;;1.00;0.90;;;3.30;99.90;;;;;;5033183;28;20451;-83
2020/12/28 08:26:22;;;;;;;2.77;2.37;;;3.60;99.90;;;;;;5033744;28;20506;-83
2020/12/28 08:28:50;;;;;;;0.70;0.70;;;3.60;99.90;;;;;;5034216;28;20484;-82
2020/12/28 08:31:15;;;;;;;1.20;1.10;;;3.60;99.90;;;;;;5033181;28;20430;-83
2020/12/28 08:33:41;;;;;;;0.93;0.90;;;3.60;99.90;;;;;;5033291;28;20423;-83
2020/12/28 08:36:07;;;;;;;0.93;0.93;;;3.30;99.90;;;;;;5033085;28;20176;-83
2020/12/28 08:38:33;;;;;;;1.13;1.03;;;3.40;99.90;;;;;;5032786;28;20299;-83
2020/12/28 08:40:59;;;;;;;1.67;1.33;;;3.70;99.90;;;;;;5031421;28;20420;-82
2020/12/28 08:43:24;;;;;;;2.10;2.00;;;3.30;99.90;;;;;;5035460;28;20169;-81
2020/12/28 08:46:05;;;;;;;2.43;1.00;;;3.40;99.90;;;;;;5032551;28;20427;-83
2020/12/28 08:48:31;;;;;;;1.73;1.20;;;3.40;99.90;;;;;;5033047;28;20176;-83
2020/12/28 08:50:57;;;;;;;1.17;1.07;;;3.60;99.90;;;;;;5033697;28;20499;-80
2020/12/28 08:53:23;;;;;;;0.90;0.90;;;3.70;99.90;;;;;;5033094;28;20180;-82
2020/12/28 08:56:02;;;;;;;0.67;0.67;;;3.70;99.90;;;;;;5033269;28;20548;-83
2020/12/28 08:58:28;;;;;;;1.00;0.90;;;3.40;99.90;;;;;;5032572;28;20467;-83
2020/12/28 09:00:53;;;;;;;0.93;0.80;;;3.50;99.90;;;;;;5032255;28;20858;-82
2020/12/28 09:03:19;;;;;;;2.93;1.73;;;3.50;99.90;;;;;;5032756;28;20191;-82
2020/12/28 09:05:45;;;;;;;2.73;2.37;;;3.70;99.90;;;;;;5032610;28;20177;-83
2020/12/28 09:08:10;;;;;;;1.50;1.40;;;3.30;99.90;;;;;;5033792;28;20183;-82
2020/12/28 09:10:36;;;;;;;0.80;0.80;;;3.50;99.90;;;;;;5032562;28;20191;-83
2020/12/28 09:13:02;;;;;;;1.07;0.97;;;3.80;99.90;;;;;;5032063;28;20541;-85
2020/12/28 09:15:27;;;;;;;0.63;0.60;;;3.30;99.90;;;;;;5031840;28;20228;-82
2020/12/28 09:17:53;;;;;;;0.73;0.70;;;3.80;99.90;;;;;;5031843;28;20451;-82
2020/12/28 09:20:19;;;;;;;0.70;0.67;;;3.50;99.90;;;;;;5032146;28;20218;-82
2020/12/28 09:22:44;;;;;;;0.60;0.60;;;3.50;99.90;;;;;;5031955;28;20172;-83
2020/12/28 09:25:10;;;;;;;0.80;0.60;;;3.90;99.90;;;;;;5031727;28;20307;-82
2020/12/28 09:27:36;;;;;;;1.23;0.60;;;3.60;99.90;;;;;;5033404;28;20169;-84
2020/12/28 09:30:09;;;;;;;2.17;1.40;;;3.80;99.90;;;;;;5032271;28;20724;-83
2020/12/28 09:32:34;;;;;;;0.80;0.80;;;4.10;99.90;;;;;;5031890;28;20644;-83
2020/12/28 09:35:00;;;;;;;1.13;0.87;;;4.10;99.90;;;;;;5031901;28;20411;-82
2020/12/28 09:37:25;;;;;;;1.23;0.90;;;4.20;99.90;;;;;;5031535;28;20200;-82
2020/12/28 09:39:51;;;;;;;0.70;0.70;;;4.20;99.90;;;;;;5033264;28;20216;-83
2020/12/28 09:42:17;;;;;;;0.53;0.53;;;3.90;99.90;;;;;;5031383;28;20653;-81
2020/12/28 09:44:42;;;;;;;0.63;0.60;;;4.40;99.90;;;;;;5032092;28;20184;-82
2020/12/28 09:47:08;;;;;;;1.20;1.10;;;4.40;99.90;;;;;;5031832;28;20938;-83
2020/12/28 09:49:34;;;;;;;2.37;0.90;;;4.40;99.90;;;;;;5032279;28;20176;-83
2020/12/28 09:51:59;;;;;;;0.77;0.77;;;4.50;99.90;;;;;;5031639;28;20172;-83
2020/12/28 09:54:26;;;;;;;1.37;1.27;;;4.40;99.90;;;;;;5033608;28;20458;-83
2020/12/28 09:56:52;;;;;;;1.70;1.60;;;4.40;99.90;;;;;;5031276;28;20651;-82
2020/12/28 09:59:17;;;;;;;1.90;1.80;;;4.40;99.90;;;;;;5035463;28;20466;-83
2020/12/28 10:01:44;;;;;;;4.33;3.93;;;4.20;99.90;;;;;;5037308;28;20224;-83
2020/12/28 10:04:11;;;;;;;0.67;0.60;;;4.40;99.90;;;;;;5036107;28;20172;-83
2020/12/28 10:06:36;;;;;;;0.60;0.60;;;4.40;99.90;;;;;;5030164;28;20505;-84
2020/12/28 10:09:10;;;;;;;0.73;0.73;;;4.50;99.90;;;;;;5034278;28;20427;-83
2020/12/28 10:11:36;;;;;;;0.80;0.80;;;4.50;99.90;;;;;;5034709;28;20187;-84
2020/12/28 10:14:03;;;;;;;1.20;1.00;;;4.60;99.90;;;;;;5034420;28;20466;-83
2020/12/28 10:16:29;;;;;;;1.20;1.10;;;4.60;99.90;;;;;;5035756;28;20415;-81
2020/12/28 10:18:58;;;;;;;1.27;1.10;;;4.60;99.90;;;;;;5034517;28;20454;-82
2020/12/28 10:21:25;;;;;;;0.90;0.90;;;4.60;99.90;;;;;;5050311;28;20946;-83
2020/12/28 10:23:51;;;;;;;1.67;1.30;;;4.60;99.90;;;;;;5035205;28;20455;-83
2020/12/28 10:26:24;;;;;;;1.50;1.40;;;4.70;99.90;;;;;;5035155;28;20760;-83
2020/12/28 10:28:51;;;;;;;1.20;1.10;;;4.70;99.90;;;;;;5036070;28;20204;-83
2020/12/28 10:31:18;;;;;;;1.10;1.00;;;4.70;99.90;;;;;;5022879;28;20503;-83
2020/12/28 10:33:45;;;;;;;2.27;1.07;;;4.50;99.90;;;;;;5031432;28;20947;-83
2020/12/28 10:36:28;;;;;;;1.13;1.10;;;4.70;99.90;;;;;;5034806;28;20438;-83
2020/12/28 10:38:57;;;;;;;1.37;1.10;;;4.80;99.90;;;;;;5034804;28;20819;-84
2020/12/28 10:41:24;;;;;;;1.27;1.07;;;4.80;99.90;;;;;;5034983;28;20435;-83
2020/12/28 10:43:50;;;;;;;0.87;0.87;;;4.80;99.90;;;;;;5035125;28;20408;-83
2020/12/28 10:46:16;;;;;;;1.03;0.90;;;4.50;99.90;;;;;;5034217;28;20787;-83
2020/12/28 10:48:41;;;;;;;1.30;1.20;;;4.90;99.90;;;;;;5034208;28;20208;-84
2020/12/28 10:51:10;;;;;;;1.47;0.90;;;5.00;99.90;;;;;;5033620;28;20192;-84
2020/12/28 10:53:36;;;;;;;2.83;1.20;;;5.00;99.90;;;;;;5035380;28;20184;-84
2020/12/28 10:56:02;;;;;;;1.90;1.50;;;5.00;99.90;;;;;;5035662;28;20442;-83
2020/12/28 10:58:27;;;;;;;1.10;1.00;;;4.70;99.90;;;;;;5033328;28;20973;-84
2020/12/28 11:00:53;;;;;;;0.83;0.80;;;5.00;99.90;;;;;;5035044;28;20180;-83
2020/12/28 11:03:19;;;;;;;1.53;1.37;;;5.00;99.90;;;;;;5033325;28;20230;-83
2020/12/28 11:05:45;;;;;;;1.50;1.40;;;4.60;99.90;;;;;;5034052;28;20238;-82
2020/12/28 11:08:12;;;;;;;1.60;1.50;;;4.70;99.90;;;;;;5033525;28;20216;-83
2020/12/28 11:10:37;;;;;;;1.50;1.40;;;5.00;99.90;;;;;;5032420;28;20495;-83
2020/12/28 11:13:03;;;;;;;1.63;1.53;;;4.70;99.90;;;;;;5034833;28;20415;-84
2020/12/28 11:15:29;;;;;;;1.73;1.63;;;4.80;99.90;;;;;;5033302;28;20219;-81
2020/12/28 11:17:54;;;;;;;2.10;1.83;;;4.80;99.90;;;;;;5033067;28;20176;-83
2020/12/28 11:20:20;;;;;;;4.80;4.20;;;5.00;99.90;;;;;;5034153;28;20212;-84
2020/12/28 11:22:46;;;;;;;2.70;2.50;;;4.60;99.90;;;;;;5032635;28;20180;-83
2020/12/28 11:25:12;;;;;;;2.60;2.10;;;5.00;99.90;;;;;;5032913;28;20640;-84
2020/12/28 11:27:37;;;;;;;1.10;1.10;;;5.00;99.90;;;;;;5032960;28;20408;-84
2020/12/28 11:30:04;;;;;;;1.70;1.60;;;5.00;99.90;;;;;;5033186;28;20204;-84
2020/12/28 11:32:30;;;;;;;2.20;2.00;;;5.00;99.90;;;;;;5032602;28;20274;-82
2020/12/28 11:35:01;;;;;;;2.80;2.60;;;5.00;99.90;;;;;;5032693;28;20485;-83
2020/12/28 11:37:27;;;;;;;3.23;2.33;;;5.00;99.90;;;;;;5032745;28;20180;-84
2020/12/28 11:39:52;;;;;;;2.40;2.00;;;5.10;99.90;;;;;;5033047;28;20485;-84
2020/12/28 11:42:18;;;;;;;2.23;2.10;;;5.10;99.90;;;;;;5032567;28;20210;-84
2020/12/28 11:44:46;;;;;;;1.30;1.20;;;5.10;99.90;;;;;;5032714;28;20188;-83
2020/12/28 11:47:18;;;;;;;3.17;2.87;;;4.80;99.90;;;;;;5032826;28;20187;-82
2020/12/28 11:49:44;;;;;;;0.90;0.83;;;5.10;99.90;;;;;;5032659;28;20550;-85
2020/12/28 11:52:09;;;;;;;1.70;1.53;;;5.20;99.90;;;;;;5032869;28;20514;-83
2020/12/28 11:54:35;;;;;;;1.47;1.37;;;5.20;99.90;;;;;;5033151;28;20172;-85
2020/12/28 11:57:00;;;;;;;1.00;1.00;;;5.20;99.90;;;;;;5033431;28;20350;-83
2020/12/28 11:59:26;;;;;;;0.97;0.97;;;5.20;99.90;;;;;;5033698;28;20295;-89
2020/12/28 12:01:51;;;;;;;1.10;0.90;;;5.20;99.90;;;;;;5033568;28;20260;-82
2020/12/28 12:04:17;;;;;;;1.20;1.03;;;5.30;99.90;;;;;;5033529;28;20177;-83
2020/12/28 12:06:42;;;;;;;1.13;0.93;;;5.30;99.90;;;;;;5033261;28;20216;-83
2020/12/28 12:09:15;;;;;;;1.40;1.30;;;5.40;99.90;;;;;;5033110;28;20180;-84
2020/12/28 12:11:47;;;;;;;1.60;1.10;;;5.40;99.90;;;;;;5033325;28;20177;-83
2020/12/28 12:14:14;;;;;;;1.70;1.60;;;5.40;99.90;;;;;;5033049;28;20443;-83
2020/12/28 12:16:40;;;;;;;1.47;1.27;;;5.50;99.90;;;;;;5049526;28;20447;-83
2020/12/28 12:19:06;;;;;;;1.50;1.40;;;5.50;99.90;;;;;;5033312;28;20486;-84
2020/12/28 12:21:32;;;;;;;2.17;1.70;;;5.40;99.90;;;;;;5033359;28;20172;-83
2020/12/28 12:23:59;;;;;;;1.33;1.27;;;5.40;99.90;;;;;;5032998;28;20270;-83
2020/12/28 12:26:25;;;;;;;2.00;1.80;;;5.10;99.90;;;;;;5033003;28;20448;-84
2020/12/28 12:28:52;;;;;;;3.07;2.87;;;5.50;99.90;;;;;;5033399;28;20472;-84
2020/12/28 12:31:18;;;;;;;2.27;2.07;;;5.40;99.90;;;;;;5049229;28;20431;-83
2020/12/28 12:33:45;;;;;;;1.70;1.60;;;5.50;99.90;;;;;;5034041;28;21004;-84
2020/12/28 12:36:10;;;;;;;2.60;2.40;;;5.40;99.90;;;;;;5032599;28;20511;-85
2020/12/28 12:38:36;;;;;;;1.63;1.53;;;5.40;99.90;;;;;;5032409;28;20454;-83
2020/12/28 12:41:02;;;;;;;2.00;1.90;;;5.30;99.90;;;;;;5032492;28;20847;-84
2020/12/28 12:43:28;;;;;;;3.70;3.33;;;5.20;99.90;;;;;;5032728;28;20228;-83
2020/12/28 12:45:54;;;;;;;3.53;3.23;;;4.80;99.90;;;;;;5032772;28;20455;-80
2020/12/28 12:48:20;;;;;;;1.87;1.70;;;4.60;99.90;;;;;;5032892;28;20509;-82
2020/12/28 12:50:45;;;;;;;1.63;1.40;;;4.80;99.90;;;;;;5032906;28;20648;-85
2020/12/28 12:53:11;;;;;;;2.00;1.70;;;4.80;99.90;;;;;;5032800;28;20446;-83
2020/12/28 12:58:58;;;;;;;2.40;2.20;;;4.70;99.90;;;;;;5033830;28;20698;-85